sensor_id;sensor_type;location;lat;lon;timestamp;pressure;altitude;pressure_sealevel;temperature;humidity
78932;BME280;68331;53.362;55.932;2023-05-07T00:02:01;99760.06;;;10.62;38.85
78932;BME280;68331;53.362;55.932;2023-05-07T00:04:29;99768.22;;;10.54;38.91
78932;BME280;68331;53.362;55.932;2023-05-07T00:07:01;99764.19;;;10.44;39.25
78932;BME280;68331;53.362;55.932;2023-05-07T00:09:28;99769.50;;;10.42;39.18
78932;BME280;68331;53.362;55.932;2023-05-07T00:11:54;99772.31;;;10.36;39.18
78932;BME280;68331;53.362;55.932;2023-05-07T00:14:20;99770.91;;;10.26;38.95
78932;BME280;68331;53.362;55.932;2023-05-07T00:16:46;99777.19;;;10.20;38.84
78932;BME280;68331;53.362;55.932;2023-05-07T00:19:12;99781.13;;;10.07;38.78
78932;BME280;68331;53.362;55.932;2023-05-07T00:21:39;99779.63;;;9.98;38.92
78932;BME280;68331;53.362;55.932;2023-05-07T00:24:05;99774.56;;;9.92;39.04
78932;BME280;68331;53.362;55.932;2023-05-07T00:26:31;99779.03;;;9.89;39.35
78932;BME280;68331;53.362;55.932;2023-05-07T00:28:57;99772.13;;;9.86;39.78
78932;BME280;68331;53.362;55.932;2023-05-07T00:31:23;99781.75;;;9.86;40.29
78932;BME280;68331;53.362;55.932;2023-05-07T00:33:49;99778.31;;;9.84;40.77
78932;BME280;68331;53.362;55.932;2023-05-07T00:36:15;99784.38;;;9.87;41.04
78932;BME280;68331;53.362;55.932;2023-05-07T00:38:41;99781.66;;;9.89;41.37
78932;BME280;68331;53.362;55.932;2023-05-07T00:41:07;99779.09;;;9.87;41.98
78932;BME280;68331;53.362;55.932;2023-05-07T00:43:33;99781.66;;;9.89;42.20
78932;BME280;68331;53.362;55.932;2023-05-07T00:45:59;99786.91;;;9.90;42.59
78932;BME280;68331;53.362;55.932;2023-05-07T00:48:27;99785.09;;;9.92;43.15
78932;BME280;68331;53.362;55.932;2023-05-07T00:50:54;99783.22;;;9.96;43.32
78932;BME280;68331;53.362;55.932;2023-05-07T00:53:20;99786.72;;;9.96;43.94
78932;BME280;68331;53.362;55.932;2023-05-07T00:55:47;99791.06;;;9.99;43.96
78932;BME280;68331;53.362;55.932;2023-05-07T00:58:13;99787.50;;;10.00;45.30
78932;BME280;68331;53.362;55.932;2023-05-07T01:00:40;99798.13;;;9.97;47.60
78932;BME280;68331;53.362;55.932;2023-05-07T01:03:06;99798.88;;;10.02;48.50
78932;BME280;68331;53.362;55.932;2023-05-07T01:05:32;99810.69;;;10.17;51.08
78932;BME280;68331;53.362;55.932;2023-05-07T01:07:59;99799.88;;;10.28;52.41
78932;BME280;68331;53.362;55.932;2023-05-07T01:10:26;99803.00;;;10.39;53.31
78932;BME280;68331;53.362;55.932;2023-05-07T01:12:53;99803.66;;;10.47;54.19
78932;BME280;68331;53.362;55.932;2023-05-07T01:15:19;99794.63;;;10.54;54.57
78932;BME280;68331;53.362;55.932;2023-05-07T01:17:46;99783.78;;;10.62;54.56
78932;BME280;68331;53.362;55.932;2023-05-07T01:20:19;99789.72;;;10.68;54.81
78932;BME280;68331;53.362;55.932;2023-05-07T01:22:46;99788.66;;;10.74;55.22
78932;BME280;68331;53.362;55.932;2023-05-07T01:25:14;99775.34;;;10.79;55.14
78932;BME280;68331;53.362;55.932;2023-05-07T01:27:45;99768.22;;;10.81;55.26
78932;BME280;68331;53.362;55.932;2023-05-07T01:30:12;99767.31;;;10.82;55.69
78932;BME280;68331;53.362;55.932;2023-05-07T01:33:09;99786.66;;;10.82;55.74
78932;BME280;68331;53.362;55.932;2023-05-07T01:35:39;99812.19;;;10.82;55.65
78932;BME280;68331;53.362;55.932;2023-05-07T01:38:06;99820.97;;;10.82;55.92
78932;BME280;68331;53.362;55.932;2023-05-07T01:40:34;99810.53;;;10.78;56.79
78932;BME280;68331;53.362;55.932;2023-05-07T01:43:04;99804.41;;;10.77;56.81
78932;BME280;68331;53.362;55.932;2023-05-07T01:45:34;99797.34;;;10.78;56.96
78932;BME280;68331;53.362;55.932;2023-05-07T01:48:02;99798.91;;;10.83;57.46
78932;BME280;68331;53.362;55.932;2023-05-07T01:50:28;99797.97;;;10.86;57.44
78932;BME280;68331;53.362;55.932;2023-05-07T01:52:55;99803.94;;;10.91;57.26
78932;BME280;68331;53.362;55.932;2023-05-07T01:55:22;99802.06;;;10.94;57.31
78932;BME280;68331;53.362;55.932;2023-05-07T01:57:49;99804.47;;;11.01;57.45
78932;BME280;68331;53.362;55.932;2023-05-07T02:00:16;99819.31;;;11.05;57.42
78932;BME280;68331;53.362;55.932;2023-05-07T02:02:45;99806.75;;;11.11;57.11
78932;BME280;68331;53.362;55.932;2023-05-07T02:05:23;99792.28;;;11.23;56.80
78932;BME280;68331;53.362;55.932;2023-05-07T02:07:57;99775.28;;;11.30;57.28
78932;BME280;68331;53.362;55.932;2023-05-07T02:10:25;99784.38;;;11.47;56.80
78932;BME280;68331;53.362;55.932;2023-05-07T02:12:51;99775.59;;;11.70;55.84
78932;BME280;68331;53.362;55.932;2023-05-07T02:15:17;99771.88;;;11.99;55.06
78932;BME280;68331;53.362;55.932;2023-05-07T02:18:02;99776.69;;;12.11;54.23
78932;BME280;68331;53.362;55.932;2023-05-07T02:20:29;99785.84;;;12.02;54.18
78932;BME280;68331;53.362;55.932;2023-05-07T02:22:55;99793.28;;;11.68;54.96
78932;BME280;68331;53.362;55.932;2023-05-07T02:25:22;99806.25;;;11.50;55.58
78932;BME280;68331;53.362;55.932;2023-05-07T02:27:48;99816.66;;;11.55;55.19
78932;BME280;68331;53.362;55.932;2023-05-07T02:30:16;99819.19;;;11.58;55.37
78932;BME280;68331;53.362;55.932;2023-05-07T02:32:42;99823.59;;;11.57;55.24
78932;BME280;68331;53.362;55.932;2023-05-07T02:35:09;99822.41;;;11.66;55.42
78932;BME280;68331;53.362;55.932;2023-05-07T02:37:35;99808.00;;;11.75;55.51
78932;BME280;68331;53.362;55.932;2023-05-07T02:40:02;99810.66;;;11.75;55.54
78932;BME280;68331;53.362;55.932;2023-05-07T02:42:30;99798.19;;;11.78;55.40
78932;BME280;68331;53.362;55.932;2023-05-07T02:44:57;99809.19;;;11.91;55.50
78932;BME280;68331;53.362;55.932;2023-05-07T02:47:24;99809.19;;;11.91;55.61
78932;BME280;68331;53.362;55.932;2023-05-07T02:49:54;99807.22;;;11.96;55.17
78932;BME280;68331;53.362;55.932;2023-05-07T02:52:20;99810.75;;;11.97;55.49
78932;BME280;68331;53.362;55.932;2023-05-07T02:54:47;99801.41;;;11.86;55.87
78932;BME280;68331;53.362;55.932;2023-05-07T02:57:13;99801.63;;;11.80;56.29
78932;BME280;68331;53.362;55.932;2023-05-07T02:59:40;99801.06;;;11.96;56.03
78932;BME280;68331;53.362;55.932;2023-05-07T03:02:06;99803.44;;;12.03;55.71
78932;BME280;68331;53.362;55.932;2023-05-07T03:04:32;99806.47;;;12.16;55.57
78932;BME280;68331;53.362;55.932;2023-05-07T03:06:59;99801.00;;;12.21;55.59
78932;BME280;68331;53.362;55.932;2023-05-07T03:09:26;99801.72;;;12.24;55.56
78932;BME280;68331;53.362;55.932;2023-05-07T03:11:53;99787.97;;;12.38;55.34
78932;BME280;68331;53.362;55.932;2023-05-07T03:14:19;99775.19;;;12.70;54.93
78932;BME280;68331;53.362;55.932;2023-05-07T03:16:46;99772.22;;;12.77;54.68
78932;BME280;68331;53.362;55.932;2023-05-07T03:19:12;99776.66;;;12.97;54.40
78932;BME280;68331;53.362;55.932;2023-05-07T03:21:38;99773.47;;;13.32;53.24
78932;BME280;68331;53.362;55.932;2023-05-07T03:24:05;99764.84;;;13.26;53.21
78932;BME280;68331;53.362;55.932;2023-05-07T03:26:31;99783.06;;;13.34;53.25
78932;BME280;68331;53.362;55.932;2023-05-07T03:28:57;99779.25;;;13.60;52.54
78932;BME280;68331;53.362;55.932;2023-05-07T03:31:23;99780.94;;;13.61;52.68
78932;BME280;68331;53.362;55.932;2023-05-07T03:33:53;99781.72;;;13.44;52.69
78932;BME280;68331;53.362;55.932;2023-05-07T03:36:20;99807.09;;;13.30;53.38
78932;BME280;68331;53.362;55.932;2023-05-07T03:38:46;99797.88;;;13.18;54.17
78932;BME280;68331;53.362;55.932;2023-05-07T03:41:14;99804.59;;;13.04;54.13
78932;BME280;68331;53.362;55.932;2023-05-07T03:43:44;99809.03;;;13.04;53.94
78932;BME280;68331;53.362;55.932;2023-05-07T03:46:11;99815.97;;;13.08;53.93
78932;BME280;68331;53.362;55.932;2023-05-07T03:48:37;99824.63;;;13.12;54.08
78932;BME280;68331;53.362;55.932;2023-05-07T03:51:04;99821.84;;;13.15;54.25
78932;BME280;68331;53.362;55.932;2023-05-07T03:53:32;99819.44;;;13.31;53.88
78932;BME280;68331;53.362;55.932;2023-05-07T03:55:59;99808.72;;;13.53;53.52
78932;BME280;68331;53.362;55.932;2023-05-07T03:58:25;99812.00;;;13.59;53.23
78932;BME280;68331;53.362;55.932;2023-05-07T04:00:53;99813.09;;;13.93;52.18
78932;BME280;68331;53.362;55.932;2023-05-07T04:03:25;99809.72;;;14.08;51.91
78932;BME280;68331;53.362;55.932;2023-05-07T04:05:51;99833.75;;;14.24;52.04
78932;BME280;68331;53.362;55.932;2023-05-07T04:08:17;99820.75;;;14.37;51.70
78932;BME280;68331;53.362;55.932;2023-05-07T04:10:54;99816.34;;;15.43;49.14
78932;BME280;68331;53.362;55.932;2023-05-07T04:13:21;99819.28;;;16.52;46.38
78932;BME280;68331;53.362;55.932;2023-05-07T04:15:47;99826.44;;;17.14;44.48
78932;BME280;68331;53.362;55.932;2023-05-07T04:18:17;99819.44;;;17.70;43.03
78932;BME280;68331;53.362;55.932;2023-05-07T04:20:45;99832.88;;;17.54;42.95
78932;BME280;68331;53.362;55.932;2023-05-07T04:23:13;99819.81;;;17.05;43.97
78932;BME280;68331;53.362;55.932;2023-05-07T04:25:40;99827.53;;;16.32;45.44
78932;BME280;68331;53.362;55.932;2023-05-07T04:28:20;99835.28;;;15.54;47.61
78932;BME280;68331;53.362;55.932;2023-05-07T04:30:46;99839.97;;;15.15;48.68
78932;BME280;68331;53.362;55.932;2023-05-07T04:33:14;99840.72;;;14.82;49.32
78932;BME280;68331;53.362;55.932;2023-05-07T04:35:42;99844.78;;;14.72;49.58
78932;BME280;68331;53.362;55.932;2023-05-07T04:38:08;99853.47;;;14.75;49.38
78932;BME280;68331;53.362;55.932;2023-05-07T04:40:38;99855.22;;;14.94;49.28
78932;BME280;68331;53.362;55.932;2023-05-07T04:43:05;99868.50;;;15.11;48.90
78932;BME280;68331;53.362;55.932;2023-05-07T04:45:39;99882.88;;;15.59;48.00
78932;BME280;68331;53.362;55.932;2023-05-07T04:48:09;99882.34;;;15.87;47.15
78932;BME280;68331;53.362;55.932;2023-05-07T04:50:37;99908.16;;;15.85;47.39
78932;BME280;68331;53.362;55.932;2023-05-07T04:53:05;99914.50;;;15.48;47.97
78932;BME280;68331;53.362;55.932;2023-05-07T04:55:31;99919.13;;;14.91;49.09
78932;BME280;68331;53.362;55.932;2023-05-07T04:57:58;99923.19;;;14.61;49.65
78932;BME280;68331;53.362;55.932;2023-05-07T05:00:24;99931.28;;;14.38;50.37
78932;BME280;68331;53.362;55.932;2023-05-07T05:02:53;99945.94;;;14.28;50.30
78932;BME280;68331;53.362;55.932;2023-05-07T05:05:22;99950.50;;;14.24;49.97
78932;BME280;68331;53.362;55.932;2023-05-07T05:07:51;99952.66;;;14.35;49.25
78932;BME280;68331;53.362;55.932;2023-05-07T05:10:18;99972.41;;;14.48;49.29
78932;BME280;68331;53.362;55.932;2023-05-07T05:12:46;99979.25;;;14.14;48.75
78932;BME280;68331;53.362;55.932;2023-05-07T05:15:12;99983.22;;;13.84;49.09
78932;BME280;68331;53.362;55.932;2023-05-07T05:17:39;99979.94;;;13.79;49.38
78932;BME280;68331;53.362;55.932;2023-05-07T05:20:06;99989.69;;;13.99;49.14
78932;BME280;68331;53.362;55.932;2023-05-07T05:22:34;100007.06;;;14.45;48.07
78932;BME280;68331;53.362;55.932;2023-05-07T05:25:03;99997.75;;;14.36;47.98
78932;BME280;68331;53.362;55.932;2023-05-07T05:27:30;100009.50;;;13.90;48.81
78932;BME280;68331;53.362;55.932;2023-05-07T05:29:56;100004.78;;;13.34;50.14
78932;BME280;68331;53.362;55.932;2023-05-07T05:32:22;100012.19;;;13.02;51.38
78932;BME280;68331;53.362;55.932;2023-05-07T05:34:50;100009.56;;;12.78;52.13
78932;BME280;68331;53.362;55.932;2023-05-07T05:37:17;100003.19;;;12.61;52.33
78932;BME280;68331;53.362;55.932;2023-05-07T05:39:44;99994.56;;;12.55;52.78
78932;BME280;68331;53.362;55.932;2023-05-07T05:42:10;100003.34;;;12.56;52.86
78932;BME280;68331;53.362;55.932;2023-05-07T05:44:36;100008.28;;;12.89;52.29
78932;BME280;68331;53.362;55.932;2023-05-07T05:47:03;100028.72;;;13.09;51.54
78932;BME280;68331;53.362;55.932;2023-05-07T05:49:29;100027.28;;;13.00;51.60
78932;BME280;68331;53.362;55.932;2023-05-07T05:51:55;100039.72;;;12.98;51.20
78932;BME280;68331;53.362;55.932;2023-05-07T05:54:23;100031.38;;;13.09;50.90
78932;BME280;68331;53.362;55.932;2023-05-07T05:56:50;100020.03;;;13.27;50.48
78932;BME280;68331;53.362;55.932;2023-05-07T05:59:16;100035.38;;;14.05;48.93
78932;BME280;68331;53.362;55.932;2023-05-07T06:01:42;100034.88;;;14.57;47.50
78932;BME280;68331;53.362;55.932;2023-05-07T06:04:08;100037.91;;;14.48;47.39
78932;BME280;68331;53.362;55.932;2023-05-07T06:06:34;100042.13;;;14.33;47.79
78932;BME280;68331;53.362;55.932;2023-05-07T06:09:02;100049.66;;;14.42;47.85
78932;BME280;68331;53.362;55.932;2023-05-07T06:11:35;100053.47;;;14.57;47.28
78932;BME280;68331;53.362;55.932;2023-05-07T06:14:01;100055.50;;;14.71;47.41
78932;BME280;68331;53.362;55.932;2023-05-07T06:16:28;100057.97;;;14.75;47.12
78932;BME280;68331;53.362;55.932;2023-05-07T06:18:55;100058.91;;;14.54;47.16
78932;BME280;68331;53.362;55.932;2023-05-07T06:21:21;100068.31;;;14.40;47.22
78932;BME280;68331;53.362;55.932;2023-05-07T06:23:47;100080.00;;;14.16;47.50
78932;BME280;68331;53.362;55.932;2023-05-07T06:26:13;100079.66;;;13.83;48.17
78932;BME280;68331;53.362;55.932;2023-05-07T06:28:42;100089.28;;;13.63;48.75
78932;BME280;68331;53.362;55.932;2023-05-07T06:31:18;100095.13;;;13.49;49.54
78932;BME280;68331;53.362;55.932;2023-05-07T06:33:56;100097.59;;;13.32;49.93
78932;BME280;68331;53.362;55.932;2023-05-07T06:36:26;100101.09;;;13.09;50.21
78932;BME280;68331;53.362;55.932;2023-05-07T06:38:55;100107.56;;;13.02;50.50
78932;BME280;68331;53.362;55.932;2023-05-07T06:41:21;100109.28;;;13.03;50.44
78932;BME280;68331;53.362;55.932;2023-05-07T06:43:48;100102.72;;;12.90;50.64
78932;BME280;68331;53.362;55.932;2023-05-07T06:46:49;100129.88;;;12.70;51.23
78932;BME280;68331;53.362;55.932;2023-05-07T06:49:16;100132.13;;;12.57;50.91
78932;BME280;68331;53.362;55.932;2023-05-07T06:51:42;100142.94;;;12.51;51.34
78932;BME280;68331;53.362;55.932;2023-05-07T06:54:08;100142.25;;;12.44;51.44
78932;BME280;68331;53.362;55.932;2023-05-07T06:56:37;100142.22;;;12.46;51.30
78932;BME280;68331;53.362;55.932;2023-05-07T06:59:04;100139.69;;;12.43;51.24
78932;BME280;68331;53.362;55.932;2023-05-07T07:01:35;100132.47;;;12.48;51.17
78932;BME280;68331;53.362;55.932;2023-05-07T07:04:02;100144.78;;;12.49;51.20
78932;BME280;68331;53.362;55.932;2023-05-07T07:06:30;100150.91;;;12.49;51.35
78932;BME280;68331;53.362;55.932;2023-05-07T07:08:58;100158.31;;;12.40;51.44
78932;BME280;68331;53.362;55.932;2023-05-07T07:11:24;100164.97;;;12.25;51.72
78932;BME280;68331;53.362;55.932;2023-05-07T07:13:51;100170.72;;;12.13;52.07
78932;BME280;68331;53.362;55.932;2023-05-07T07:16:17;100167.69;;;11.97;52.54
78932;BME280;68331;53.362;55.932;2023-05-07T07:18:44;100183.56;;;11.67;53.15
78932;BME280;68331;53.362;55.932;2023-05-07T07:21:10;100199.09;;;11.48;54.01
78932;BME280;68331;53.362;55.932;2023-05-07T07:23:36;100205.50;;;11.41;54.41
78932;BME280;68331;53.362;55.932;2023-05-07T07:26:05;100191.09;;;11.22;55.06
78932;BME280;68331;53.362;55.932;2023-05-07T07:28:32;100182.34;;;11.20;55.44
78932;BME280;68331;53.362;55.932;2023-05-07T07:30:58;100182.56;;;11.41;54.65
78932;BME280;68331;53.362;55.932;2023-05-07T07:33:24;100192.03;;;11.78;53.96
78932;BME280;68331;53.362;55.932;2023-05-07T07:35:51;100172.25;;;11.92;53.49
78932;BME280;68331;53.362;55.932;2023-05-07T07:38:17;100179.69;;;12.07;53.06
78932;BME280;68331;53.362;55.932;2023-05-07T07:40:43;100191.44;;;11.98;53.40
78932;BME280;68331;53.362;55.932;2023-05-07T07:43:10;100211.66;;;11.71;53.90
78932;BME280;68331;53.362;55.932;2023-05-07T07:45:36;100213.91;;;11.54;54.53
78932;BME280;68331;53.362;55.932;2023-05-07T07:48:03;100214.59;;;11.31;55.21
78932;BME280;68331;53.362;55.932;2023-05-07T07:50:32;100213.25;;;11.16;55.79
78932;BME280;68331;53.362;55.932;2023-05-07T07:52:58;100212.47;;;11.12;55.93
78932;BME280;68331;53.362;55.932;2023-05-07T07:55:26;100212.72;;;11.03;55.97
78932;BME280;68331;53.362;55.932;2023-05-07T07:57:53;100223.59;;;10.92;56.49
78932;BME280;68331;53.362;55.932;2023-05-07T08:00:20;100232.75;;;10.79;57.04
78932;BME280;68331;53.362;55.932;2023-05-07T08:02:51;100231.34;;;10.66;57.66
78932;BME280;68331;53.362;55.932;2023-05-07T08:05:23;100227.47;;;10.45;58.50
78932;BME280;68331;53.362;55.932;2023-05-07T08:07:50;100223.56;;;10.24;59.92
78932;BME280;68331;53.362;55.932;2023-05-07T08:10:21;100237.00;;;10.15;61.02
78932;BME280;68331;53.362;55.932;2023-05-07T08:12:50;100249.72;;;9.96;62.33
78932;BME280;68331;53.362;55.932;2023-05-07T08:15:17;100239.59;;;9.77;63.22
78932;BME280;68331;53.362;55.932;2023-05-07T08:17:43;100245.78;;;9.75;64.21
78932;BME280;68331;53.362;55.932;2023-05-07T08:20:10;100251.13;;;9.72;64.90
78932;BME280;68331;53.362;55.932;2023-05-07T08:22:37;100250.38;;;9.67;65.22
78932;BME280;68331;53.362;55.932;2023-05-07T08:25:03;100252.31;;;9.57;65.77
78932;BME280;68331;53.362;55.932;2023-05-07T08:27:30;100272.63;;;9.52;65.90
78932;BME280;68331;53.362;55.932;2023-05-07T08:29:56;100262.34;;;9.40;66.29
78932;BME280;68331;53.362;55.932;2023-05-07T08:32:22;100271.91;;;9.44;66.50
78932;BME280;68331;53.362;55.932;2023-05-07T08:34:48;100279.00;;;9.40;67.29
78932;BME280;68331;53.362;55.932;2023-05-07T08:37:14;100297.50;;;9.37;67.84
78932;BME280;68331;53.362;55.932;2023-05-07T08:39:41;100298.56;;;9.28;67.44
78932;BME280;68331;53.362;55.932;2023-05-07T08:42:16;100288.16;;;9.22;67.59
78932;BME280;68331;53.362;55.932;2023-05-07T08:44:45;100282.06;;;9.19;67.82
78932;BME280;68331;53.362;55.932;2023-05-07T08:47:13;100288.97;;;9.26;67.97
78932;BME280;68331;53.362;55.932;2023-05-07T08:49:40;100281.06;;;9.26;67.58
78932;BME280;68331;53.362;55.932;2023-05-07T08:52:07;100287.06;;;9.32;67.96
78932;BME280;68331;53.362;55.932;2023-05-07T08:54:36;100292.22;;;9.39;68.00
78932;BME280;68331;53.362;55.932;2023-05-07T08:57:04;100296.41;;;9.47;68.35
78932;BME280;68331;53.362;55.932;2023-05-07T08:59:32;100299.97;;;9.46;68.21
78932;BME280;68331;53.362;55.932;2023-05-07T09:01:59;100300.69;;;9.54;68.26
78932;BME280;68331;53.362;55.932;2023-05-07T09:04:26;100304.31;;;9.49;68.46
78932;BME280;68331;53.362;55.932;2023-05-07T09:06:52;100296.56;;;9.41;68.75
78932;BME280;68331;53.362;55.932;2023-05-07T09:09:21;100294.81;;;9.40;68.33
78932;BME280;68331;53.362;55.932;2023-05-07T09:11:56;100298.72;;;9.64;67.28
78932;BME280;68331;53.362;55.932;2023-05-07T09:14:25;100300.19;;;9.77;65.66
78932;BME280;68331;53.362;55.932;2023-05-07T09:16:52;100305.81;;;10.01;65.47
78932;BME280;68331;53.362;55.932;2023-05-07T09:19:24;100305.41;;;10.19;64.32
78932;BME280;68331;53.362;55.932;2023-05-07T09:22:00;100310.53;;;10.29;63.32
78932;BME280;68331;53.362;55.932;2023-05-07T09:24:30;100314.53;;;10.05;64.10
78932;BME280;68331;53.362;55.932;2023-05-07T09:27:02;100319.63;;;9.72;64.67
78932;BME280;68331;53.362;55.932;2023-05-07T09:29:30;100328.78;;;9.54;64.64
78932;BME280;68331;53.362;55.932;2023-05-07T09:32:05;100327.97;;;9.50;64.51
78932;BME280;68331;53.362;55.932;2023-05-07T09:34:32;100328.47;;;9.69;63.99
78932;BME280;68331;53.362;55.932;2023-05-07T09:37:03;100329.66;;;9.96;63.46
78932;BME280;68331;53.362;55.932;2023-05-07T09:42:07;100312.47;;;10.58;61.60
78932;BME280;68331;53.362;55.932;2023-05-07T09:44:35;100312.34;;;10.98;59.44
78932;BME280;68331;53.362;55.932;2023-05-07T09:47:07;100306.59;;;11.15;58.40
78932;BME280;68331;53.362;55.932;2023-05-07T09:49:40;100330.59;;;11.07;58.26
78932;BME280;68331;53.362;55.932;2023-05-07T09:52:10;100332.31;;;11.08;58.22
78932;BME280;68331;53.362;55.932;2023-05-07T09:54:46;100333.53;;;10.95;57.26
78932;BME280;68331;53.362;55.932;2023-05-07T09:57:16;100330.63;;;10.70;57.35
78932;BME280;68331;53.362;55.932;2023-05-07T09:59:49;100336.56;;;10.80;57.52
78932;BME280;68331;53.362;55.932;2023-05-07T10:02:19;100326.00;;;11.14;56.89
78932;BME280;68331;53.362;55.932;2023-05-07T10:04:50;100331.44;;;11.40;56.18
78932;BME280;68331;53.362;55.932;2023-05-07T10:07:21;100340.59;;;11.60;56.17
78932;BME280;68331;53.362;55.932;2023-05-07T10:09:50;100331.91;;;11.24;56.08
78932;BME280;68331;53.362;55.932;2023-05-07T10:12:32;100335.63;;;11.49;56.24
78932;BME280;68331;53.362;55.932;2023-05-07T10:17:37;100330.16;;;12.44;54.19
78932;BME280;68331;53.362;55.932;2023-05-07T10:20:05;100322.84;;;12.52;53.19
78932;BME280;68331;53.362;55.932;2023-05-07T10:22:37;100338.41;;;12.05;53.18
78932;BME280;68331;53.362;55.932;2023-05-07T10:25:13;100334.78;;;11.78;53.57
78932;BME280;68331;53.362;55.932;2023-05-07T10:27:40;100338.09;;;11.86;53.87
78932;BME280;68331;53.362;55.932;2023-05-07T10:33:11;100329.25;;;12.98;50.93
78932;BME280;68331;53.362;55.932;2023-05-07T10:35:44;100323.00;;;13.28;49.27
78932;BME280;68331;53.362;55.932;2023-05-07T10:38:12;100330.13;;;13.51;48.13
78932;BME280;68331;53.362;55.932;2023-05-07T10:40:40;100320.72;;;13.65;47.38
78932;BME280;68331;53.362;55.932;2023-05-07T10:43:07;100319.94;;;13.63;47.53
78932;BME280;68331;53.362;55.932;2023-05-07T10:45:39;100319.03;;;13.39;47.08
78932;BME280;68331;53.362;55.932;2023-05-07T10:48:14;100320.66;;;12.92;47.89
78932;BME280;68331;53.362;55.932;2023-05-07T10:50:43;100329.34;;;12.70;48.14
78932;BME280;68331;53.362;55.932;2023-05-07T10:53:22;100318.66;;;12.73;48.14
78932;BME280;68331;53.362;55.932;2023-05-07T10:58:55;100316.88;;;12.72;48.21
78932;BME280;68331;53.362;55.932;2023-05-07T11:01:58;100327.94;;;12.59;48.12
78932;BME280;68331;53.362;55.932;2023-05-07T11:04:43;100337.47;;;12.36;48.83
78932;BME280;68331;53.362;55.932;2023-05-07T11:07:28;100335.09;;;12.28;49.46
78932;BME280;68331;53.362;55.932;2023-05-07T11:10:00;100340.38;;;12.28;49.07
78932;BME280;68331;53.362;55.932;2023-05-07T11:12:52;100341.63;;;12.45;48.67
78932;BME280;68331;53.362;55.932;2023-05-07T11:15:36;100338.13;;;12.97;46.98
78932;BME280;68331;53.362;55.932;2023-05-07T11:18:06;100336.19;;;13.02;46.81
78932;BME280;68331;53.362;55.932;2023-05-07T11:26:09;100349.25;;;11.96;48.78
78932;BME280;68331;53.362;55.932;2023-05-07T11:28:38;100357.09;;;11.68;49.91
78932;BME280;68331;53.362;55.932;2023-05-07T11:31:05;100358.00;;;11.67;50.50
78932;BME280;68331;53.362;55.932;2023-05-07T11:33:31;100361.25;;;11.77;50.12
78932;BME280;68331;53.362;55.932;2023-05-07T11:36:02;100362.78;;;11.87;49.84
78932;BME280;68331;53.362;55.932;2023-05-07T11:38:38;100364.16;;;11.99;49.25
78932;BME280;68331;53.362;55.932;2023-05-07T11:41:04;100365.63;;;12.09;49.28
78932;BME280;68331;53.362;55.932;2023-05-07T11:43:31;100370.06;;;12.38;49.14
78932;BME280;68331;53.362;55.932;2023-05-07T11:46:08;100379.81;;;12.64;48.52
78932;BME280;68331;53.362;55.932;2023-05-07T11:48:35;100381.50;;;12.39;47.89
78932;BME280;68331;53.362;55.932;2023-05-07T11:51:03;100387.06;;;12.29;47.88
78932;BME280;68331;53.362;55.932;2023-05-07T11:53:37;100382.59;;;12.31;47.29
78932;BME280;68331;53.362;55.932;2023-05-07T11:56:12;100364.47;;;12.19;47.36
78932;BME280;68331;53.362;55.932;2023-05-07T11:58:39;100384.97;;;12.11;47.62
78932;BME280;68331;53.362;55.932;2023-05-07T12:01:07;100389.81;;;11.97;47.62
78932;BME280;68331;53.362;55.932;2023-05-07T12:03:33;100383.88;;;11.89;47.70
78932;BME280;68331;53.362;55.932;2023-05-07T12:06:00;100386.25;;;11.98;47.63
78932;BME280;68331;53.362;55.932;2023-05-07T12:08:26;100386.06;;;12.33;46.60
78932;BME280;68331;53.362;55.932;2023-05-07T12:10:52;100398.47;;;12.60;46.34
78932;BME280;68331;53.362;55.932;2023-05-07T12:13:19;100374.81;;;12.83;45.45
78932;BME280;68331;53.362;55.932;2023-05-07T12:15:46;100384.66;;;12.78;44.83
78932;BME280;68331;53.362;55.932;2023-05-07T12:18:13;100391.09;;;12.97;43.90
78932;BME280;68331;53.362;55.932;2023-05-07T12:20:39;100384.22;;;12.92;42.93
78932;BME280;68331;53.362;55.932;2023-05-07T12:23:05;100391.16;;;12.96;42.31
78932;BME280;68331;53.362;55.932;2023-05-07T12:25:34;100388.03;;;13.10;41.73
78932;BME280;68331;53.362;55.932;2023-05-07T12:28:02;100387.28;;;13.33;41.41
78932;BME280;68331;53.362;55.932;2023-05-07T12:30:37;100384.34;;;13.15;41.32
78932;BME280;68331;53.362;55.932;2023-05-07T12:33:04;100395.81;;;13.14;41.34
78932;BME280;68331;53.362;55.932;2023-05-07T12:35:32;100389.19;;;13.54;40.43
78932;BME280;68331;53.362;55.932;2023-05-07T12:37:59;100388.69;;;13.68;40.31
78932;BME280;68331;53.362;55.932;2023-05-07T12:40:54;100384.31;;;13.67;40.24
78932;BME280;68331;53.362;55.932;2023-05-07T12:43:28;100402.00;;;13.91;39.70
78932;BME280;68331;53.362;55.932;2023-05-07T12:45:57;100403.75;;;13.42;39.06
78932;BME280;68331;53.362;55.932;2023-05-07T12:48:23;100406.81;;;13.30;38.58
78932;BME280;68331;53.362;55.932;2023-05-07T12:51:00;100400.63;;;13.30;38.49
78932;BME280;68331;53.362;55.932;2023-05-07T12:53:27;100397.88;;;13.33;38.94
78932;BME280;68331;53.362;55.932;2023-05-07T12:55:55;100395.53;;;13.50;38.75
78932;BME280;68331;53.362;55.932;2023-05-07T12:58:33;100400.56;;;13.83;38.32
78932;BME280;68331;53.362;55.932;2023-05-07T13:01:03;100397.50;;;13.93;38.56
78932;BME280;68331;53.362;55.932;2023-05-07T13:03:32;100398.97;;;13.77;38.97
78932;BME280;68331;53.362;55.932;2023-05-07T13:06:01;100397.81;;;13.61;39.97
78932;BME280;68331;53.362;55.932;2023-05-07T13:08:34;100401.56;;;13.29;39.73
78932;BME280;68331;53.362;55.932;2023-05-07T13:11:02;100412.06;;;12.77;40.82